Time;durP1;ratioP1;P1;durP2;ratioP2;P2;SDS_P1;SDS_P2;PMS_P1;PMS_P2;Temp;Humidity;BMP_temperature;BMP_pressure;BME280_temperature;BME280_humidity;BME280_pressure;Samples;Min_cycle;Max_cycle;Signal;HPM_P1;HPM_P2
2022/10/02 00:00:25;;;;;;;10.43;2.83;;;11.30;99.90;;;;;;3059739;19;20018;-70
2022/10/02 00:01:35;;;;;;;14.27;2.78;;;11.30;99.90;;;;;;3057953;19;20030;-67
2022/10/02 00:02:42;;;;;;;11.13;2.72;;;11.30;99.90;;;;;;3058200;19;20009;-68
2022/10/02 00:03:51;;;;;;;9.32;2.95;;;11.40;99.90;;;;;;3056704;19;20456;-67
2022/10/02 00:04:56;;;;;;;9.65;3.25;;;11.40;99.90;;;;;;3057319;19;20011;-67
2022/10/02 00:06:05;;;;;;;9.05;2.83;;;11.50;99.90;;;;;;3059209;19;20080;-67
2022/10/02 00:07:10;;;;;;;11.30;3.03;;;11.60;99.90;;;;;;3057501;19;20006;-67
2022/10/02 00:08:20;;;;;;;11.95;3.63;;;11.40;99.90;;;;;;3059399;19;20010;-68
2022/10/02 00:09:28;;;;;;;8.73;2.70;;;11.40;99.90;;;;;;3058528;19;20066;-67
2022/10/02 00:10:37;;;;;;;8.13;3.03;;;11.30;99.90;;;;;;3054982;19;20015;-67
2022/10/02 00:11:42;;;;;;;16.80;3.20;;;11.80;99.90;;;;;;3050576;19;20051;-68
2022/10/02 00:12:49;;;;;;;10.98;2.85;;;11.50;99.90;;;;;;3052331;19;20019;-67
2022/10/02 00:13:54;;;;;;;12.70;3.20;;;11.50;99.90;;;;;;3058799;19;20015;-67
2022/10/02 00:15:04;;;;;;;11.50;3.42;;;11.40;99.90;;;;;;3056851;19;20488;-67
2022/10/02 00:16:12;;;;;;;11.73;2.70;;;11.50;99.90;;;;;;3058489;19;20082;-66
2022/10/02 00:17:21;;;;;;;12.02;3.63;;;11.40;99.90;;;;;;3058146;19;20014;-67
2022/10/02 00:18:27;;;;;;;8.38;3.30;;;11.20;99.90;;;;;;3057916;19;20003;-67
2022/10/02 00:19:34;;;;;;;14.80;3.33;;;11.30;99.90;;;;;;3058024;19;20022;-67
2022/10/02 00:20:42;;;;;;;15.73;2.97;;;11.70;99.90;;;;;;3058567;19;20399;-67
2022/10/02 00:22:11;;;;;;;11.45;2.55;;;11.10;99.90;;;;;;3056543;19;20010;-67
2022/10/02 00:23:18;;;;;;;8.85;2.30;;;11.20;99.90;;;;;;3059595;19;20042;-67
2022/10/02 00:24:28;;;;;;;9.43;2.65;;;11.20;99.90;;;;;;3055967;19;20023;-67
2022/10/02 00:25:34;;;;;;;8.75;2.42;;;10.90;99.90;;;;;;3058673;19;20019;-67
2022/10/02 00:26:42;;;;;;;5.15;2.20;;;11.10;99.90;;;;;;3057844;19;20428;-67
2022/10/02 00:28:07;;;;;;;7.63;2.00;;;11.10;99.90;;;;;;3059187;19;20089;-67
2022/10/02 00:29:26;;;;;;;6.25;2.50;;;11.10;99.90;;;;;;3059134;19;20027;-67
2022/10/02 00:30:36;;;;;;;6.22;1.90;;;11.10;99.90;;;;;;3057003;19;20010;-68
2022/10/02 00:31:47;;;;;;;6.40;1.88;;;10.90;99.90;;;;;;3058903;19;20006;-67
2022/10/02 00:33:02;;;;;;;3.30;1.58;;;11.20;99.90;;;;;;3057522;19;20018;-68
2022/10/02 00:34:20;;;;;;;5.20;1.70;;;11.60;99.90;;;;;;3057882;19;20021;-67
2022/10/02 00:35:45;;;;;;;7.25;1.60;;;11.40;99.90;;;;;;3059424;19;20079;-68
2022/10/02 00:36:55;;;;;;;4.30;1.52;;;10.80;99.90;;;;;;3058434;19;20006;-67
2022/10/02 00:38:05;;;;;;;6.45;2.00;;;11.10;99.90;;;;;;3058269;19;20039;-68
2022/10/02 00:39:24;;;;;;;7.00;1.90;;;11.40;99.90;;;;;;3058319;19;20040;-67
2022/10/02 00:40:38;;;;;;;9.00;1.92;;;11.50;99.90;;;;;;3057116;19;20015;-67
2022/10/02 00:42:13;;;;;;;9.30;1.98;;;11.30;99.90;;;;;;3057095;19;20022;-67
2022/10/02 00:43:25;;;;;;;6.20;2.17;;;11.20;99.90;;;;;;3056357;19;20025;-68
2022/10/02 00:44:45;;;;;;;9.50;2.15;;;11.20;99.90;;;;;;3056581;19;20380;-67
2022/10/02 00:46:18;;;;;;;7.30;2.00;;;11.10;99.90;;;;;;3057222;19;20022;-67
2022/10/02 00:47:31;;;;;;;11.93;2.28;;;11.10;99.90;;;;;;3059987;19;20078;-67
2022/10/02 00:48:59;;;;;;;8.68;2.38;;;11.20;99.90;;;;;;3057106;19;20014;-67
2022/10/02 00:50:21;;;;;;;8.07;2.35;;;10.90;99.90;;;;;;3057100;19;20057;-67
2022/10/02 00:51:50;;;;;;;15.07;2.80;;;11.50;99.90;;;;;;3058424;19;20010;-67
2022/10/02 00:53:08;;;;;;;11.02;2.80;;;11.10;99.90;;;;;;3057523;19;20029;-67
2022/10/02 00:54:27;;;;;;;11.43;2.88;;;11.10;99.90;;;;;;3057817;19;20018;-67
2022/10/02 00:55:37;;;;;;;8.68;2.80;;;11.10;99.90;;;;;;3059224;19;20535;-67
2022/10/02 00:56:48;;;;;;;12.05;4.22;;;11.10;99.90;;;;;;3058444;19;20022;-67
2022/10/02 00:58:01;;;;;;;13.10;3.78;;;11.50;99.90;;;;;;3058428;19;20019;-67
2022/10/02 00:59:36;;;;;;;14.25;4.18;;;10.10;99.90;;;;;;3057438;19;20465;-68
2022/10/02 01:00:39;;;;;;;14.10;3.97;;;11.10;99.90;;;;;;3058364;19;20011;-67
2022/10/02 01:01:48;;;;;;;16.27;4.35;;;11.40;99.90;;;;;;3058065;19;20035;-67
2022/10/02 01:03:13;;;;;;;15.13;4.55;;;11.20;99.90;;;;;;3057649;19;20014;-68
2022/10/02 01:04:19;;;;;;;14.68;4.35;;;11.00;99.90;;;;;;3056775;19;20014;-67
2022/10/02 01:05:24;;;;;;;12.73;4.10;;;11.20;99.90;;;;;;3058278;19;20082;-68
2022/10/02 01:06:32;;;;;;;11.30;4.68;;;11.20;99.90;;;;;;3059604;19;20022;-67
2022/10/02 01:07:40;;;;;;;14.18;4.30;;;11.10;99.90;;;;;;3055379;19;20384;-68
2022/10/02 01:08:45;;;;;;;12.73;4.10;;;11.10;99.90;;;;;;3058979;19;20027;-68
2022/10/02 01:09:46;;;;;;;17.48;4.68;;;11.50;99.90;;;;;;3058247;19;20035;-67
2022/10/02 01:10:50;;;;;;;12.43;4.50;;;11.20;99.90;;;;;;3058260;19;20014;-68
2022/10/02 01:11:52;;;;;;;13.13;4.28;;;11.30;99.90;;;;;;3057768;19;20027;-68
2022/10/02 01:12:58;;;;;;;13.10;4.00;;;11.40;99.90;;;;;;3057042;19;20017;-68
2022/10/02 01:13:59;;;;;;;15.70;4.20;;;11.60;99.90;;;;;;3058282;19;20043;-67
2022/10/02 01:15:03;;;;;;;18.48;4.25;;;11.20;99.90;;;;;;3058095;19;20019;-68
2022/10/02 01:16:10;;;;;;;18.48;3.85;;;11.30;99.90;;;;;;3057704;19;20029;-68
2022/10/02 01:17:25;;;;;;;12.05;4.00;;;11.20;99.90;;;;;;3057809;19;20025;-68
2022/10/02 01:18:27;;;;;;;14.65;3.88;;;11.10;99.90;;;;;;3057129;19;20025;-68
2022/10/02 01:19:39;;;;;;;17.25;4.13;;;11.10;99.90;;;;;;3056441;19;20010;-67
2022/10/02 01:20:44;;;;;;;15.52;4.15;;;11.30;99.90;;;;;;3052135;19;20023;-68
2022/10/02 01:21:57;;;;;;;16.67;3.70;;;11.30;99.90;;;;;;3056721;19;20377;-67
2022/10/02 01:23:07;;;;;;;12.85;3.75;;;11.20;99.90;;;;;;3054609;19;20011;-67
2022/10/02 01:24:17;;;;;;;14.63;3.67;;;11.10;99.90;;;;;;3057285;19;20349;-69
2022/10/02 01:25:21;;;;;;;16.02;4.45;;;11.10;99.90;;;;;;3057350;19;20321;-68
2022/10/02 01:26:25;;;;;;;13.68;3.78;;;11.10;99.90;;;;;;3057792;19;20014;-67
2022/10/02 01:27:26;;;;;;;13.15;4.22;;;11.10;99.90;;;;;;3058090;19;20018;-68
2022/10/02 01:28:30;;;;;;;15.85;4.00;;;11.20;99.90;;;;;;3057450;19;20389;-68
2022/10/02 01:29:32;;;;;;;14.02;3.47;;;11.20;99.90;;;;;;3057939;19;20609;-67
2022/10/02 01:30:37;;;;;;;14.55;3.75;;;11.10;99.90;;;;;;3058342;19;20082;-67
2022/10/02 01:31:39;;;;;;;14.45;4.13;;;11.10;99.90;;;;;;3058238;19;20010;-68
2022/10/02 01:32:49;;;;;;;13.95;4.20;;;10.80;99.90;;;;;;3057336;19;20015;-68
2022/10/02 01:33:51;;;;;;;9.70;3.58;;;11.10;99.90;;;;;;3056614;19;20039;-67
2022/10/02 01:34:56;;;;;;;14.48;3.92;;;10.90;99.90;;;;;;3057853;19;20010;-68
2022/10/02 01:35:57;;;;;;;12.77;3.63;;;10.80;99.90;;;;;;3054035;19;20027;-68
2022/10/02 01:37:01;;;;;;;12.75;3.47;;;11.20;99.90;;;;;;3057725;19;20027;-68
2022/10/02 01:38:06;;;;;;;9.98;3.85;;;11.20;99.90;;;;;;3056692;19;20010;-68
2022/10/02 01:39:10;;;;;;;13.38;4.22;;;11.10;99.90;;;;;;3058416;19;20007;-69
2022/10/02 01:40:27;;;;;;;14.50;3.50;;;11.30;99.90;;;;;;3058044;19;20003;-69
2022/10/02 01:41:31;;;;;;;18.08;4.35;;;10.90;99.90;;;;;;3056149;19;20035;-69
2022/10/02 01:42:33;;;;;;;18.10;3.90;;;10.90;99.90;;;;;;3057543;19;20023;-68
2022/10/02 01:43:39;;;;;;;17.05;4.00;;;10.90;99.90;;;;;;3056895;19;20512;-68
2022/10/02 01:44:42;;;;;;;16.65;4.03;;;11.40;99.90;;;;;;3057719;19;20022;-68
2022/10/02 01:45:58;;;;;;;12.77;3.88;;;11.00;99.90;;;;;;3057204;19;20086;-69
2022/10/02 01:47:07;;;;;;;18.60;4.20;;;10.70;99.90;;;;;;3058282;19;20018;-68
2022/10/02 01:48:14;;;;;;;17.67;4.30;;;11.10;99.90;;;;;;3057491;19;20019;-68
2022/10/02 01:49:29;;;;;;;16.67;4.13;;;10.90;99.90;;;;;;3057705;19;20021;-68
2022/10/02 01:50:41;;;;;;;13.98;4.43;;;10.90;99.90;;;;;;3052607;19;20047;-68
2022/10/02 01:52:16;;;;;;;17.95;4.10;;;10.90;99.90;;;;;;3057548;19;20018;-69
2022/10/02 01:53:24;;;;;;;15.93;4.75;;;10.90;99.90;;;;;;3056744;19;20022;-69
2022/10/02 01:54:42;;;;;;;15.85;4.03;;;10.80;99.90;;;;;;3057928;19;20082;-68
2022/10/02 01:55:55;;;;;;;13.55;3.80;;;10.80;99.90;;;;;;3057711;19;20449;-68
2022/10/02 01:57:11;;;;;;;18.63;3.97;;;10.80;99.90;;;;;;3057080;19;20096;-68
2022/10/02 01:58:23;;;;;;;14.52;3.65;;;10.90;99.90;;;;;;3055390;19;20043;-70
2022/10/02 01:59:32;;;;;;;;;;;10.80;99.90;;;;;;3058283;19;20035;-69
2022/10/02 02:00:49;;;;;;;9.20;3.45;;;11.10;99.90;;;;;;3053940;19;19919;-69
2022/10/02 02:02:06;;;;;;;15.88;4.07;;;11.20;99.90;;;;;;3059119;19;20030;-69
2022/10/02 02:03:17;;;;;;;13.82;3.88;;;10.70;99.90;;;;;;3058883;19;20025;-68
2022/10/02 02:04:26;;;;;;;12.77;3.38;;;10.70;99.90;;;;;;3054447;19;20015;-68
2022/10/02 02:05:42;;;;;;;16.58;3.45;;;10.70;99.90;;;;;;3057769;19;20014;-68
2022/10/02 02:06:53;;;;;;;13.10;3.40;;;10.40;99.90;;;;;;3057704;19;20037;-68
2022/10/02 02:08:04;;;;;;;11.38;3.58;;;10.70;99.90;;;;;;3058542;19;20010;-69
2022/10/02 02:09:12;;;;;;;13.82;3.88;;;10.60;99.90;;;;;;3056692;19;20476;-69
2022/10/02 02:10:21;;;;;;;15.27;3.97;;;10.60;99.90;;;;;;3056849;19;20372;-69
2022/10/02 02:11:28;;;;;;;15.40;4.28;;;10.70;99.90;;;;;;3055339;19;20035;-69
2022/10/02 02:12:38;;;;;;;11.90;3.63;;;10.60;99.90;;;;;;3056170;19;20074;-68
2022/10/02 02:13:48;;;;;;;15.82;4.47;;;10.60;99.90;;;;;;3056843;19;20060;-70
2022/10/02 02:14:55;;;;;;;12.93;3.97;;;10.60;99.90;;;;;;3059276;19;20374;-68
2022/10/02 02:16:06;;;;;;;13.95;3.50;;;10.60;99.90;;;;;;3060574;19;20018;-68
2022/10/02 02:17:12;;;;;;;16.47;3.60;;;11.00;99.90;;;;;;3056329;19;20026;-69
2022/10/02 02:18:25;;;;;;;14.32;4.38;;;10.60;99.90;;;;;;3059050;19;20314;-68
2022/10/02 02:19:33;;;;;;;12.73;3.80;;;10.50;99.90;;;;;;3059476;19;20031;-68
2022/10/02 02:20:42;;;;;;;16.75;4.20;;;10.40;99.90;;;;;;3059534;19;20062;-69
2022/10/02 02:21:50;;;;;;;14.60;3.97;;;10.20;99.90;;;;;;3060514;19;20009;-68
2022/10/02 02:22:56;;;;;;;14.73;4.05;;;10.50;99.90;;;;;;3060154;19;20018;-68
2022/10/02 02:24:01;;;;;;;14.32;3.97;;;10.70;99.90;;;;;;3060700;19;20014;-69
2022/10/02 02:25:10;;;;;;;16.67;4.18;;;10.50;99.90;;;;;;3059648;19;20015;-69
2022/10/02 02:26:12;;;;;;;13.73;4.07;;;10.50;99.90;;;;;;3059772;19;20011;-68
2022/10/02 02:27:24;;;;;;;18.05;4.10;;;10.50;99.90;;;;;;3059298;19;20018;-68
2022/10/02 02:28:29;;;;;;;15.57;3.63;;;10.30;99.90;;;;;;3060201;19;20026;-68
2022/10/02 02:29:36;;;;;;;11.32;3.90;;;10.30;99.90;;;;;;3061029;19;20259;-68
2022/10/02 02:30:40;;;;;;;16.98;3.88;;;10.50;99.90;;;;;;3060250;19;20022;-68
2022/10/02 02:31:50;;;;;;;16.27;4.43;;;10.30;99.90;;;;;;3060293;19;20018;-68
2022/10/02 02:32:55;;;;;;;18.38;4.80;;;10.50;99.90;;;;;;3060138;19;20010;-69
2022/10/02 02:34:02;;;;;;;12.82;3.80;;;10.50;99.90;;;;;;3059700;19;20484;-68
2022/10/02 02:35:07;;;;;;;13.57;3.85;;;10.60;99.90;;;;;;3060042;19;20018;-68
2022/10/02 02:36:15;;;;;;;16.63;4.20;;;10.70;99.90;;;;;;3060394;19;20068;-68
2022/10/02 02:37:21;;;;;;;15.02;3.83;;;10.40;99.90;;;;;;3054301;19;20019;-68
2022/10/02 02:38:30;;;;;;;13.65;3.83;;;10.30;99.90;;;;;;3057964;19;20425;-68
2022/10/02 02:39:36;;;;;;;14.77;3.88;;;10.20;99.90;;;;;;3060324;19;20409;-69
2022/10/02 02:40:44;;;;;;;9.02;3.30;;;10.30;99.90;;;;;;3059123;19;20022;-68
2022/10/02 02:41:49;;;;;;;14.07;3.60;;;10.20;99.90;;;;;;3060124;19;20015;-68
2022/10/02 02:43:01;;;;;;;14.32;3.35;;;10.10;99.90;;;;;;3060674;19;20025;-68
2022/10/02 02:44:08;;;;;;;12.27;3.95;;;10.60;99.90;;;;;;3060782;19;20015;-67
2022/10/02 02:45:15;;;;;;;13.80;4.15;;;10.20;99.90;;;;;;3058301;19;20017;-68
2022/10/02 02:46:22;;;;;;;17.30;4.15;;;10.30;99.90;;;;;;3058439;19;20106;-68
2022/10/02 02:47:29;;;;;;;16.25;4.10;;;10.30;99.90;;;;;;3059853;19;20021;-68
2022/10/02 02:48:35;;;;;;;11.93;3.85;;;10.40;99.90;;;;;;3061047;19;20025;-68
2022/10/02 02:49:48;;;;;;;14.00;3.88;;;10.40;99.90;;;;;;3058829;19;20025;-68
2022/10/02 02:50:52;;;;;;;14.45;3.40;;;10.60;99.90;;;;;;3056911;19;20043;-68
2022/10/02 02:52:01;;;;;;;14.38;4.18;;;10.30;99.90;;;;;;3059853;19;20018;-68
2022/10/02 02:53:10;;;;;;;10.75;3.35;;;10.50;99.90;;;;;;3060556;19;20025;-68
2022/10/02 02:54:14;;;;;;;11.88;3.08;;;10.30;99.90;;;;;;3059262;19;20015;-68
2022/10/02 02:55:21;;;;;;;20.10;3.88;;;10.10;99.90;;;;;;3058795;19;20029;-68
2022/10/02 02:56:26;;;;;;;15.40;3.88;;;10.40;99.90;;;;;;3058203;19;20026;-68
2022/10/02 02:57:35;;;;;;;13.70;3.40;;;10.30;99.90;;;;;;3060184;19;19999;-68
2022/10/02 02:58:44;;;;;;;12.15;4.20;;;10.40;99.90;;;;;;3058135;19;20042;-68
2022/10/02 02:59:51;;;;;;;12.88;3.03;;;10.40;99.90;;;;;;3060328;19;20074;-68
2022/10/02 03:00:53;;;;;;;13.57;3.35;;;10.30;99.90;;;;;;3059876;19;20358;-68
2022/10/02 03:01:57;;;;;;;16.42;3.67;;;10.50;99.90;;;;;;3059505;19;20478;-68
2022/10/02 03:02:58;;;;;;;11.50;2.90;;;10.30;99.90;;;;;;3058494;19;20014;-68
2022/10/02 03:04:03;;;;;;;11.68;3.03;;;10.60;99.90;;;;;;3059156;19;20487;-68
2022/10/02 03:05:11;;;;;;;9.02;2.63;;;10.30;99.90;;;;;;3058626;19;20031;-68
2022/10/02 03:06:30;;;;;;;10.23;2.80;;;10.30;99.90;;;;;;3058948;19;20364;-68
2022/10/02 03:07:32;;;;;;;10.95;2.85;;;;;;;;;;3060803;19;20044;-68
2022/10/02 03:08:37;;;;;;;10.70;3.00;;;10.40;99.90;;;;;;3059657;19;20368;-67
2022/10/02 03:09:39;;;;;;;11.25;3.10;;;;;;;;;;3060499;19;20011;-68
2022/10/02 03:10:54;;;;;;;9.80;2.50;;;10.50;99.90;;;;;;3059701;19;20439;-68
2022/10/02 03:12:07;;;;;;;13.50;2.88;;;10.30;99.90;;;;;;3061504;19;20026;-68
2022/10/02 03:13:27;;;;;;;11.50;2.63;;;10.30;99.90;;;;;;3059348;19;20022;-68
2022/10/02 03:14:48;;;;;;;11.75;2.80;;;10.50;99.90;;;;;;3058546;19;20014;-68
2022/10/02 03:16:10;;;;;;;7.25;2.35;;;10.50;99.90;;;;;;3058766;19;20022;-68
2022/10/02 03:17:26;;;;;;;13.55;3.13;;;10.50;99.90;;;;;;3059132;19;20021;-68
2022/10/02 03:19:03;;;;;;;9.80;2.58;;;10.60;99.90;;;;;;3057341;19;20018;-68
2022/10/02 03:20:10;;;;;;;10.32;2.70;;;10.40;99.90;;;;;;3059712;19;20006;-68
2022/10/02 03:21:20;;;;;;;6.55;2.28;;;10.60;99.90;;;;;;3060809;19;20018;-68
2022/10/02 03:22:34;;;;;;;9.40;2.50;;;10.40;99.90;;;;;;3059328;19;20018;-68
2022/10/02 03:23:50;;;;;;;11.07;2.88;;;10.40;99.90;;;;;;3059491;19;20024;-68
2022/10/02 03:24:59;;;;;;;10.50;2.50;;;10.60;99.90;;;;;;3056352;19;20558;-69
2022/10/02 03:26:07;;;;;;;10.25;2.28;;;10.30;99.90;;;;;;3057133;19;20007;-68
2022/10/02 03:27:11;;;;;;;9.68;2.58;;;10.50;99.90;;;;;;3057556;19;20019;-68
2022/10/02 03:28:20;;;;;;;9.50;2.80;;;10.50;99.90;;;;;;3061278;19;20065;-68
2022/10/02 03:29:27;;;;;;;9.00;2.40;;;10.60;99.90;;;;;;3058769;19;20006;-68
2022/10/02 03:30:35;;;;;;;11.18;3.03;;;10.50;99.90;;;;;;3061685;19;20032;-67
2022/10/02 03:31:37;;;;;;;9.13;2.45;;;;;;;;;;3058412;19;20018;-68
2022/10/02 03:32:43;;;;;;;13.15;3.33;;;10.50;99.90;;;;;;3057997;19;20025;-68
2022/10/02 03:33:45;;;;;;;8.32;2.58;;;10.50;99.90;;;;;;3058155;19;20066;-68
2022/10/02 03:34:50;;;;;;;9.43;2.70;;;10.50;99.90;;;;;;3058277;19;20488;-68
2022/10/02 03:35:52;;;;;;;8.18;2.35;;;10.60;99.90;;;;;;3059278;19;20010;-68
2022/10/02 03:36:56;;;;;;;10.77;2.67;;;;;;;;;;3055956;19;20021;-69
2022/10/02 03:38:03;;;;;;;8.52;2.40;;;10.50;99.90;;;;;;3057708;19;20011;-68
2022/10/02 03:39:08;;;;;;;9.25;2.67;;;10.70;99.90;;;;;;3059372;19;20078;-68
2022/10/02 03:40:10;;;;;;;12.63;2.42;;;10.40;99.90;;;;;;3059296;19;20035;-68
2022/10/02 03:41:13;;;;;;;9.05;2.40;;;10.60;99.90;;;;;;3059306;19;20041;-68
2022/10/02 03:42:17;;;;;;;9.55;2.58;;;10.70;99.90;;;;;;3058512;19;20077;-69
2022/10/02 03:43:24;;;;;;;11.57;2.97;;;10.60;99.90;;;;;;3058396;19;20070;-68
2022/10/02 03:44:25;;;;;;;10.50;2.60;;;10.70;99.90;;;;;;3058455;19;20014;-68
2022/10/02 03:45:32;;;;;;;13.15;3.08;;;10.40;99.90;;;;;;3056269;19;20047;-68
2022/10/02 03:46:34;;;;;;;8.27;2.60;;;11.00;99.90;;;;;;3057336;19;20018;-68
2022/10/02 03:47:37;;;;;;;7.68;2.60;;;10.80;99.90;;;;;;3054879;19;20018;-68
2022/10/02 03:48:39;;;;;;;9.48;2.70;;;10.40;99.90;;;;;;3058127;19;20015;-69
2022/10/02 03:49:42;;;;;;;12.55;2.72;;;10.70;99.90;;;;;;3052876;19;20022;-68
2022/10/02 03:50:44;;;;;;;8.52;2.60;;;10.60;99.90;;;;;;3057532;19;20488;-69
2022/10/02 03:51:48;;;;;;;;;;;10.70;99.90;;;;;;3059158;19;20337;-68
2022/10/02 03:52:51;;;;;;;11.73;2.78;;;10.70;99.90;;;;;;3059570;19;19918;-68
2022/10/02 03:53:55;;;;;;;10.68;3.20;;;;;;;;;;3059438;19;20007;-68
2022/10/02 03:55:02;;;;;;;10.52;3.00;;;10.40;99.90;;;;;;3059252;19;20018;-68
2022/10/02 03:56:10;;;;;;;10.10;2.53;;;10.60;99.90;;;;;;3057812;19;20014;-68
2022/10/02 03:57:17;;;;;;;11.00;2.55;;;10.60;99.90;;;;;;3059074;19;20014;-68
2022/10/02 03:58:21;;;;;;;14.27;2.60;;;10.70;99.90;;;;;;3058277;19;20018;-68
2022/10/02 03:59:37;;;;;;;11.95;2.72;;;10.60;99.90;;;;;;3058649;19;20487;-68
2022/10/02 04:00:51;;;;;;;12.32;2.60;;;10.60;99.90;;;;;;3059290;19;20015;-68
2022/10/02 04:01:54;;;;;;;13.02;2.60;;;10.70;99.90;;;;;;3060823;19;20038;-68
2022/10/02 04:03:01;;;;;;;10.35;2.67;;;10.70;99.90;;;;;;3058282;19;20025;-68
2022/10/02 04:04:09;;;;;;;12.63;2.25;;;10.60;99.90;;;;;;3059361;19;20010;-68
2022/10/02 04:05:32;;;;;;;8.43;2.30;;;10.70;99.90;;;;;;3060460;19;20025;-68
2022/10/02 04:06:41;;;;;;;17.40;3.38;;;10.60;99.90;;;;;;3057242;19;20348;-67
2022/10/02 04:07:48;;;;;;;11.27;2.40;;;10.30;99.90;;;;;;3059856;19;20010;-68
2022/10/02 04:08:54;;;;;;;12.27;2.38;;;10.80;99.90;;;;;;3058797;19;20018;-69
2022/10/02 04:10:18;;;;;;;9.32;2.67;;;10.70;99.90;;;;;;3059948;19;20476;-68
2022/10/02 04:11:24;;;;;;;14.88;2.72;;;10.90;99.90;;;;;;3058905;19;20028;-68
2022/10/02 04:12:33;;;;;;;16.58;2.33;;;10.60;99.90;;;;;;3058007;19;20018;-69
2022/10/02 04:13:41;;;;;;;10.07;2.75;;;10.70;99.90;;;;;;3058849;19;20010;-69
2022/10/02 04:14:49;;;;;;;13.27;2.67;;;10.50;99.90;;;;;;3059100;19;20022;-68
2022/10/02 04:16:06;;;;;;;12.32;2.58;;;10.60;99.90;;;;;;3057851;19;20374;-68
2022/10/02 04:17:12;;;;;;;16.67;3.00;;;10.80;99.90;;;;;;3057700;19;20630;-68
2022/10/02 04:18:22;;;;;;;12.45;2.63;;;11.10;99.90;;;;;;3056407;19;20390;-68
2022/10/02 04:19:28;;;;;;;9.40;2.40;;;11.00;99.90;;;;;;3057327;19;20033;-68
2022/10/02 04:20:42;;;;;;;11.50;2.67;;;10.70;99.90;;;;;;3057248;19;20334;-68
2022/10/02 04:21:50;;;;;;;9.65;2.58;;;10.70;99.90;;;;;;3058996;19;20010;-68
2022/10/02 04:22:58;;;;;;;10.70;2.65;;;10.70;99.90;;;;;;3059335;19;20011;-68
2022/10/02 04:24:08;;;;;;;9.98;2.58;;;10.50;99.90;;;;;;3055183;19;20022;-68
2022/10/02 04:25:18;;;;;;;7.43;2.05;;;10.60;99.90;;;;;;3058953;19;20011;-68
2022/10/02 04:26:26;;;;;;;11.15;2.22;;;10.60;99.90;;;;;;3059230;19;20022;-68
2022/10/02 04:27:37;;;;;;;14.18;2.50;;;11.10;99.90;;;;;;3055437;19;20057;-68
2022/10/02 04:28:43;;;;;;;10.73;2.78;;;10.70;99.90;;;;;;3055870;19;20014;-68
2022/10/02 04:29:54;;;;;;;11.80;2.72;;;10.80;99.90;;;;;;3058692;19;20010;-68
2022/10/02 04:31:00;;;;;;;14.30;2.50;;;10.80;99.90;;;;;;3058903;19;20014;-69
2022/10/02 04:32:14;;;;;;;9.68;2.58;;;10.60;99.90;;;;;;3057470;19;20373;-68
2022/10/02 04:33:18;;;;;;;11.40;2.45;;;10.80;99.90;;;;;;3060489;19;20022;-68
2022/10/02 04:34:22;;;;;;;11.50;2.65;;;11.00;99.90;;;;;;3058352;19;20377;-68
2022/10/02 04:35:31;;;;;;;14.45;2.70;;;10.80;99.90;;;;;;3058990;19;20002;-68
2022/10/02 04:36:43;;;;;;;13.90;2.58;;;10.80;99.90;;;;;;3057627;19;20006;-69
2022/10/02 04:37:56;;;;;;;15.35;2.60;;;10.70;99.90;;;;;;3058202;19;21869;-68
2022/10/02 04:39:28;;;;;;;11.23;2.45;;;10.80;99.90;;;;;;3058904;19;20051;-68
2022/10/02 04:40:49;;;;;;;12.82;2.40;;;10.60;99.90;;;;;;3058531;19;20014;-68
2022/10/02 04:42:16;;;;;;;11.35;2.30;;;10.50;99.90;;;;;;3056447;19;20018;-68
2022/10/02 04:43:29;;;;;;;13.55;2.80;;;10.70;99.90;;;;;;3059266;19;20035;-67
2022/10/02 04:44:46;;;;;;;13.80;2.40;;;10.70;99.90;;;;;;3057434;19;20511;-68
2022/10/02 04:46:02;;;;;;;10.50;2.17;;;10.80;99.90;;;;;;3058632;19;20350;-68
2022/10/02 04:47:28;;;;;;;17.55;2.55;;;10.70;99.90;;;;;;3057308;19;20014;-68
2022/10/02 04:49:11;;;;;;;7.72;2.45;;;10.60;99.90;;;;;;3058178;19;20057;-68
2022/10/02 04:50:39;;;;;;;13.95;2.72;;;10.80;99.90;;;;;;3054544;19;20034;-69
2022/10/02 04:51:54;;;;;;;14.10;2.83;;;10.70;99.90;;;;;;3058292;19;20365;-67
2022/10/02 04:53:18;;;;;;;17.13;2.42;;;10.80;99.90;;;;;;3055685;19;20029;-68
2022/10/02 04:54:41;;;;;;;11.05;2.72;;;10.90;99.90;;;;;;3056616;19;20038;-68
2022/10/02 04:56:04;;;;;;;18.30;2.95;;;10.60;99.90;;;;;;3058127;19;20021;-69
2022/10/02 04:57:16;;;;;;;;;;;10.80;99.90;;;;;;3060482;19;20010;-68
2022/10/02 04:58:34;;;;;;;14.60;2.70;;;10.80;99.90;;;;;;3058213;19;19947;-68
2022/10/02 04:59:55;;;;;;;14.23;2.70;;;10.80;99.90;;;;;;3059772;19;20010;-68
2022/10/02 05:01:13;;;;;;;9.43;2.40;;;10.70;99.90;;;;;;3055882;19;20025;-68
2022/10/02 05:02:30;;;;;;;11.73;2.30;;;10.70;99.90;;;;;;3058033;19;20018;-68
2022/10/02 05:03:49;;;;;;;15.27;2.80;;;10.60;99.90;;;;;;3059421;19;20014;-68
2022/10/02 05:05:07;;;;;;;13.02;2.85;;;10.50;99.90;;;;;;3058677;19;20029;-68
2022/10/02 05:06:29;;;;;;;9.65;2.53;;;10.70;99.90;;;;;;3059075;19;20028;-68
2022/10/02 05:07:44;;;;;;;9.77;2.25;;;10.70;99.90;;;;;;3059938;19;20013;-68
2022/10/02 05:09:01;;;;;;;12.63;2.50;;;10.80;99.90;;;;;;3055950;19;20480;-68
2022/10/02 05:10:18;;;;;;;13.82;2.72;;;10.70;99.90;;;;;;3058487;19;20422;-68
2022/10/02 05:11:44;;;;;;;13.85;2.88;;;10.70;99.90;;;;;;3057107;19;20082;-68
2022/10/02 05:12:59;;;;;;;12.35;2.53;;;10.70;99.90;;;;;;3056423;19;20015;-68
2022/10/02 05:14:29;;;;;;;13.02;2.42;;;10.50;99.90;;;;;;3058032;19;20504;-68
2022/10/02 05:15:58;;;;;;;11.90;2.78;;;10.70;99.90;;;;;;3055113;19;20048;-68
2022/10/02 05:17:23;;;;;;;14.18;2.55;;;10.60;99.90;;;;;;3058184;19;20010;-68
2022/10/02 05:18:53;;;;;;;14.40;2.53;;;10.80;99.90;;;;;;3057037;19;20010;-68
2022/10/02 05:20:12;;;;;;;10.82;2.47;;;10.70;99.90;;;;;;3058152;19;20066;-67
2022/10/02 05:21:30;;;;;;;13.35;2.63;;;10.70;99.90;;;;;;3058336;19;20010;-68
2022/10/02 05:22:54;;;;;;;19.73;3.33;;;10.60;99.90;;;;;;3057339;19;20014;-68
2022/10/02 05:24:14;;;;;;;12.02;2.75;;;11.00;99.90;;;;;;3057696;19;20019;-67
2022/10/02 05:25:37;;;;;;;11.77;2.20;;;10.80;99.90;;;;;;3051193;19;20022;-68
2022/10/02 05:27:00;;;;;;;13.60;2.67;;;10.70;99.90;;;;;;3057904;19;20022;-68
2022/10/02 05:28:12;;;;;;;9.88;1.90;;;10.50;99.90;;;;;;3057942;19;20019;-68
2022/10/02 05:29:32;;;;;;;17.00;2.75;;;10.70;99.90;;;;;;3058692;19;20010;-68
2022/10/02 05:30:41;;;;;;;16.30;2.55;;;10.90;99.90;;;;;;3059755;19;20030;-68
2022/10/02 05:31:56;;;;;;;13.43;3.17;;;10.70;99.90;;;;;;3057963;19;20005;-69
2022/10/02 05:33:31;;;;;;;10.52;2.40;;;10.80;99.90;;;;;;3058526;19;20039;-68
2022/10/02 05:34:55;;;;;;;13.45;2.50;;;10.70;99.90;;;;;;3055010;19;20410;-69
2022/10/02 05:36:15;;;;;;;9.45;2.80;;;10.80;99.90;;;;;;3058460;19;20036;-68
2022/10/02 05:37:33;;;;;;;14.77;2.38;;;10.80;99.90;;;;;;3057521;19;20015;-68
2022/10/02 05:39:01;;;;;;;13.75;2.47;;;10.70;99.90;;;;;;3059374;19;20014;-69
2022/10/02 05:40:15;;;;;;;11.07;2.17;;;10.80;99.90;;;;;;3058673;19;20018;-68
2022/10/02 05:41:22;;;;;;;11.90;2.60;;;11.10;99.90;;;;;;3057670;19;20512;-68
2022/10/02 05:42:32;;;;;;;16.23;2.50;;;10.60;99.90;;;;;;3054986;19;20096;-69
2022/10/02 05:43:41;;;;;;;11.52;2.90;;;10.60;99.90;;;;;;3052148;19;20353;-69
2022/10/02 05:44:52;;;;;;;13.38;2.30;;;10.70;99.90;;;;;;3056206;19;20018;-69
2022/10/02 05:45:56;;;;;;;12.52;2.55;;;10.70;99.90;;;;;;3056327;19;20371;-69
2022/10/02 05:47:14;;;;;;;16.17;2.65;;;11.10;99.90;;;;;;3057542;19;20081;-70
2022/10/02 05:48:19;;;;;;;13.10;2.30;;;10.60;99.90;;;;;;3057775;19;20021;-69
2022/10/02 05:49:30;;;;;;;16.20;2.28;;;11.10;99.90;;;;;;3056472;19;20021;-68
2022/10/02 05:50:35;;;;;;;13.82;2.70;;;10.80;99.90;;;;;;3059039;19;20019;-69
2022/10/02 05:51:49;;;;;;;13.50;2.75;;;10.70;99.90;;;;;;3058950;19;20010;-68
2022/10/02 05:52:56;;;;;;;12.43;2.22;;;10.90;99.90;;;;;;3062401;19;20018;-68
2022/10/02 05:54:07;;;;;;;12.52;2.33;;;10.80;99.90;;;;;;3060435;19;20038;-68
2022/10/02 05:55:16;;;;;;;12.68;2.58;;;10.60;99.90;;;;;;3059574;19;20006;-68
2022/10/02 05:56:25;;;;;;;17.05;2.45;;;10.80;99.90;;;;;;3059940;19;20480;-67
2022/10/02 05:57:32;;;;;;;9.10;2.45;;;10.50;99.90;;;;;;3059641;19;20026;-69
2022/10/02 05:58:40;;;;;;;11.18;2.40;;;10.70;99.90;;;;;;3060358;19;20015;-68
2022/10/02 05:59:46;;;;;;;14.88;2.50;;;10.60;99.90;;;;;;3060621;19;20465;-68
2022/10/02 06:00:56;;;;;;;15.13;2.60;;;10.50;99.90;;;;;;3058825;19;20014;-69
2022/10/02 06:02:03;;;;;;;10.50;2.17;;;10.90;99.90;;;;;;3060605;19;20034;-68
2022/10/02 06:03:16;;;;;;;13.50;2.42;;;10.60;99.90;;;;;;3060973;19;20730;-68
2022/10/02 06:04:18;;;;;;;;;;;10.80;99.90;;;;;;3060465;19;20010;-68
2022/10/02 06:05:31;;;;;;;13.68;2.47;;;10.40;99.90;;;;;;3056871;19;19922;-68
2022/10/02 06:06:38;;;;;;;9.88;2.00;;;10.50;99.90;;;;;;3058887;19;20010;-68